Time;durP1;ratioP1;P1;durP2;ratioP2;P2;SDS_P1;SDS_P2;PMS_P1;PMS_P2;Temp;Humidity;BMP_temperature;BMP_pressure;BME280_temperature;BME280_humidity;BME280_pressure;Samples;Min_cycle;Max_cycle;Signal;HPM_P1;HPM_P2
2023/07/13 00:00:09;;;;;;;7.25;6.15;;;;;;;21.48;66.63;99875.41;5092367;28;20209;-67
2023/07/13 00:02:37;;;;;;;7.25;6.55;;;;;;;21.38;67.15;99880.34;5081037;28;20590;-68
2023/07/13 00:05:07;;;;;;;7.40;6.72;;;;;;;21.34;67.37;99872.75;5090109;28;20262;-69
2023/07/13 00:07:36;;;;;;;8.77;6.78;;;;;;;21.35;67.37;99879.69;5078363;28;20197;-68
2023/07/13 00:10:07;;;;;;;9.50;6.53;;;;;;;21.36;67.27;99876.16;5091306;28;20228;-68
2023/07/13 00:12:37;;;;;;;8.00;5.85;;;;;;;21.31;67.69;99860.63;5085114;28;20211;-69
2023/07/13 00:15:11;;;;;;;8.35;6.85;;;;;;;21.42;67.54;99876.59;5082409;28;20596;-68
2023/07/13 00:17:39;;;;;;;8.70;6.32;;;;;;;21.43;67.39;99867.00;5092576;28;20208;-67
2023/07/13 00:20:09;;;;;;;7.50;6.65;;;;;;;21.45;67.52;99860.69;5092988;28;20258;-68
2023/07/13 00:22:37;;;;;;;7.47;6.78;;;;;;;21.46;66.92;99861.53;5087553;28;20296;-67
2023/07/13 00:25:07;;;;;;;7.70;6.50;;;;;;;21.46;66.95;99856.28;5086385;28;20213;-68
2023/07/13 00:27:35;;;;;;;7.18;6.40;;;;;;;21.46;66.97;99859.75;5091649;28;20228;-69
2023/07/13 00:30:05;;;;;;;7.53;6.65;;;;;;;21.46;66.99;99856.28;5092788;28;20660;-68
2023/07/13 00:32:33;;;;;;;6.60;5.90;;;;;;;21.46;67.08;99861.53;5083186;28;20564;-69
2023/07/13 00:35:02;;;;;;;7.53;6.30;;;;;;;21.46;67.08;99861.53;5090688;28;20246;-68
2023/07/13 00:37:31;;;;;;;8.68;6.93;;;;;;;21.41;67.00;99867.06;5084045;28;20282;-68
2023/07/13 00:39:59;;;;;;;7.72;6.82;;;;;;;21.36;67.47;99866.50;5087936;28;20262;-68
2023/07/13 00:42:28;;;;;;;11.23;7.03;;;;;;;21.34;67.48;99863.13;5091197;28;20303;-67
2023/07/13 00:45:05;;;;;;;8.50;6.90;;;;;;;21.32;67.34;99869.34;5091713;28;20247;-68
2023/07/13 00:47:33;;;;;;;9.20;7.15;;;;;;;21.30;67.43;99869.44;5089885;28;20200;-69
2023/07/13 00:50:02;;;;;;;11.18;6.97;;;;;;;21.27;67.70;99866.16;5085035;28;20702;-68
2023/07/13 00:52:31;;;;;;;8.18;6.70;;;;;;;21.23;67.72;99855.00;5081127;28;20249;-68
2023/07/13 00:54:59;;;;;;;9.90;7.07;;;;;;;21.19;67.94;99851.72;5089436;28;20629;-68
2023/07/13 00:57:29;;;;;;;8.30;7.40;;;;;;;21.20;67.93;99861.25;5085067;28;20280;-68
2023/07/13 01:00:00;;;;;;;8.15;6.97;;;;;;;21.21;68.12;99864.75;5085336;28;20553;-68
2023/07/13 01:02:29;;;;;;;7.75;6.95;;;;;;;21.20;68.07;99849.94;5087359;28;20197;-67
2023/07/13 01:04:57;;;;;;;9.38;7.82;;;;;;;21.19;68.15;99854.34;5090117;28;20292;-69
2023/07/13 01:07:26;;;;;;;8.10;7.25;;;;;;;21.17;68.23;99848.38;5091145;28;20208;-67
2023/07/13 01:09:54;;;;;;;8.25;7.13;;;;;;;21.14;68.11;99855.56;5090718;28;20204;-69
2023/07/13 01:12:22;;;;;;;8.32;7.53;;;;;;;21.13;68.34;99854.69;5090013;28;20564;-69
2023/07/13 01:14:58;;;;;;;8.05;7.15;;;;;;;21.15;68.47;99862.47;5084412;28;20622;-68
2023/07/13 01:17:26;;;;;;;8.23;7.20;;;;;;;21.15;68.44;99852.84;5089608;28;20200;-69
2023/07/13 01:19:54;;;;;;;9.07;7.00;;;;;;;21.18;68.35;99862.31;5085144;28;20209;-68
2023/07/13 01:22:26;;;;;;;9.45;7.03;;;;;;;21.21;68.62;99867.38;5077264;28;20255;-68
2023/07/13 01:24:55;;;;;;;9.05;7.47;;;;;;;21.22;68.23;99867.28;5074048;28;20692;-67
2023/07/13 01:27:25;;;;;;;9.07;7.43;;;;;;;21.19;68.38;99856.13;5079202;28;20237;-67
2023/07/13 01:30:03;;;;;;;9.95;7.35;;;;;;;21.22;68.28;99864.66;5081486;28;20676;-68
2023/07/13 01:32:32;;;;;;;10.07;8.15;;;;;;;21.21;68.25;99870.00;5078499;28;20761;-68
2023/07/13 01:35:00;;;;;;;9.23;7.88;;;;;;;21.17;68.64;99877.19;5086567;28;20255;-68
2023/07/13 01:37:33;;;;;;;10.25;8.00;;;;;;;21.13;68.72;99878.28;5082721;28;20246;-69
2023/07/13 01:40:01;;;;;;;8.85;7.15;;;;;;;21.11;68.73;99880.16;5085095;28;20578;-69
2023/07/13 01:42:29;;;;;;;8.60;7.63;;;;;;;21.12;68.90;99894.94;5089850;28;20200;-69
2023/07/13 01:44:57;;;;;;;9.50;7.43;;;;;;;21.14;68.58;99893.09;5090432;28;20208;-67
2023/07/13 01:47:26;;;;;;;9.23;7.55;;;;;;;21.12;68.56;99891.47;5087232;28;20620;-68
2023/07/13 01:49:54;;;;;;;8.07;7.28;;;;;;;21.10;68.57;99891.56;5088436;28;20637;-67
2023/07/13 01:52:22;;;;;;;9.35;8.38;;;;;;;21.04;69.00;99886.69;5081944;28;20200;-68
2023/07/13 01:54:51;;;;;;;9.23;7.63;;;;;;;21.03;69.29;99890.25;5090428;28;20287;-67
2023/07/13 01:57:19;;;;;;;8.93;8.05;;;;;;;21.03;69.21;99892.03;5091181;28;20200;-68
2023/07/13 01:59:47;;;;;;;8.52;7.63;;;;;;;20.99;69.17;99888.72;5085323;28;20369;-68
2023/07/13 02:02:15;;;;;;;9.05;7.65;;;;;;;20.98;69.29;99892.25;5090674;28;20212;-67
2023/07/13 02:04:44;;;;;;;10.43;8.35;;;;;;;21.00;69.13;99890.41;5090498;28;20254;-68
2023/07/13 02:07:12;;;;;;;10.65;7.88;;;;;;;21.02;69.15;99888.53;5086695;28;20204;-68
2023/07/13 02:09:40;;;;;;;10.20;7.55;;;;;;;21.02;69.18;99891.16;5090207;28;20613;-67
2023/07/13 02:12:10;;;;;;;9.05;7.68;;;;;;;21.02;69.28;99891.16;5085293;28;20212;-69
2023/07/13 02:14:38;;;;;;;9.68;8.30;;;;;;;21.03;69.31;99899.88;5090084;28;20200;-68
2023/07/13 02:17:06;;;;;;;10.23;7.97;;;;;;;21.03;69.24;99908.56;5089268;28;20261;-67
2023/07/13 02:19:34;;;;;;;9.52;8.55;;;;;;;21.04;69.34;99901.56;5087972;28;20209;-69
2023/07/13 02:22:02;;;;;;;8.35;7.55;;;;;;;21.02;69.43;99901.63;5086024;28;20212;-68
2023/07/13 02:24:30;;;;;;;9.68;8.75;;;;;;;21.03;69.22;99895.47;5090224;28;20697;-68
2023/07/13 02:26:58;;;;;;;11.52;8.25;;;;;;;20.96;69.24;99902.84;5091223;28;20682;-68
2023/07/13 02:29:27;;;;;;;10.18;8.57;;;;;;;20.94;69.94;99904.69;5089432;28;20563;-69
2023/07/13 02:31:55;;;;;;;10.60;8.75;;;;;;;20.96;69.79;99899.38;5086561;28;20200;-68
2023/07/13 02:34:23;;;;;;;10.55;8.50;;;;;;;20.96;69.82;99904.63;5094834;28;20623;-67
2023/07/13 02:36:51;;;;;;;11.57;9.13;;;;;;;20.96;69.89;99902.84;5087193;28;20208;-67
2023/07/13 02:39:19;;;;;;;9.80;8.00;;;;;;;20.97;69.64;99908.91;5091746;28;20311;-67
2023/07/13 02:41:48;;;;;;;9.15;8.07;;;;;;;20.98;69.84;99914.06;5090507;28;20205;-68
2023/07/13 02:44:16;;;;;;;9.50;8.23;;;;;;;20.97;69.72;99901.06;5091339;28;20208;-67
2023/07/13 02:46:45;;;;;;;9.90;8.52;;;;;;;20.98;69.85;99902.75;5087040;28;20204;-67
2023/07/13 02:49:13;;;;;;;9.98;8.93;;;;;;;20.98;69.95;99898.34;5094489;28;20239;-68
2023/07/13 02:51:41;;;;;;;11.65;9.07;;;;;;;20.99;69.84;99904.44;5094161;28;20621;-68
2023/07/13 02:54:13;;;;;;;10.73;8.85;;;;;;;20.96;69.55;99902.00;5091769;28;20613;-68
2023/07/13 02:56:43;;;;;;;12.60;8.23;;;;;;;20.97;69.88;99896.66;5083288;28;20201;-68
2023/07/13 02:59:12;;;;;;;9.27;8.25;;;;;;;21.00;69.92;99900.88;5083868;28;20213;-68
2023/07/13 03:01:40;;;;;;;11.73;9.30;;;;;;;21.01;69.78;99891.25;5093094;28;20650;-67
2023/07/13 03:04:09;;;;;;;10.60;9.00;;;;;;;20.96;69.81;99889.75;5085071;28;20215;-69
2023/07/13 03:06:38;;;;;;;10.27;8.20;;;;;;;21.02;69.73;99888.53;5081021;28;20204;-68
2023/07/13 03:09:06;;;;;;;11.93;9.23;;;;;;;21.03;69.65;99895.47;5093946;28;20246;-68
2023/07/13 03:11:34;;;;;;;10.70;8.85;;;;;;;21.01;69.72;99901.72;5089915;28;20257;-69
2023/07/13 03:14:02;;;;;;;8.95;8.05;;;;;;;20.97;70.20;99899.28;5088834;28;20205;-69
2023/07/13 03:16:30;;;;;;;9.82;8.82;;;;;;;20.94;70.15;99893.38;5085044;28;20333;-69
2023/07/13 03:18:58;;;;;;;12.25;9.93;;;;;;;20.95;70.21;99900.28;5089415;28;20259;-68
2023/07/13 03:21:28;;;;;;;11.27;9.18;;;;;;;20.94;70.24;99896.00;5092940;28;20258;-68
2023/07/13 03:23:56;;;;;;;11.65;9.15;;;;;;;20.91;70.27;99890.91;5089045;28;20609;-70
2023/07/13 03:26:23;;;;;;;9.88;8.73;;;;;;;20.90;70.20;99894.47;5075149;28;20243;-68
2023/07/13 03:28:51;;;;;;;10.38;9.10;;;;;;;20.92;70.43;99897.88;5078819;28;20215;-67
2023/07/13 03:31:23;;;;;;;11.25;9.50;;;;;;;20.89;70.43;99890.19;5087525;28;20289;-67
2023/07/13 03:33:51;;;;;;;12.60;9.52;;;;;;;20.89;70.36;99887.56;5090738;28;20207;-68
2023/07/13 03:36:22;;;;;;;12.70;8.60;;;;;;;20.86;70.52;99885.09;5092421;28;20659;-68
2023/07/13 03:38:53;;;;;;;10.52;9.13;;;;;;;20.87;70.63;99878.94;5083535;28;20219;-68
2023/07/13 03:41:22;;;;;;;11.40;8.85;;;;;;;20.88;71.04;99876.25;5091854;28;20209;-69
2023/07/13 03:43:50;;;;;;;10.35;9.25;;;;;;;20.92;70.97;99880.38;5091495;28;20200;-69
2023/07/13 03:46:19;;;;;;;11.55;8.63;;;;;;;20.96;70.80;99873.19;5090854;28;20612;-69
2023/07/13 03:48:48;;;;;;;10.40;8.88;;;;;;;21.01;71.20;99878.16;5082763;28;20731;-69
2023/07/13 03:51:18;;;;;;;11.93;9.00;;;;;;;21.04;70.98;99880.59;5092237;28;20287;-69
2023/07/13 03:53:48;;;;;;;16.67;9.80;;;;;;;21.10;70.71;99873.25;5093530;28;20208;-68
2023/07/13 03:56:18;;;;;;;11.13;9.90;;;;;;;21.14;70.53;99873.91;5087338;28;20201;-68
2023/07/13 03:58:48;;;;;;;11.10;9.52;;;;;;;21.18;70.04;99881.50;5086801;28;20228;-69
2023/07/13 04:01:17;;;;;;;12.25;10.05;;;;;;;21.21;69.96;99883.94;5088365;28;20208;-69
2023/07/13 04:03:47;;;;;;;10.65;9.45;;;;;;;21.30;69.92;99881.72;5091490;28;20232;-69
2023/07/13 04:06:20;;;;;;;12.77;9.48;;;;;;;21.36;69.75;99878.78;5092550;28;20208;-66
2023/07/13 04:08:51;;;;;;;13.73;10.07;;;;;;;21.44;69.83;99887.03;5086997;28;20204;-67
2023/07/13 04:11:22;;;;;;;12.57;10.13;;;;;;;21.52;69.73;99886.56;5088776;28;20232;-69
2023/07/13 04:13:51;;;;;;;12.77;9.93;;;;;;;21.60;69.47;99895.66;5092629;28;20200;-68
2023/07/13 04:16:20;;;;;;;10.98;9.73;;;;;;;21.76;69.64;99894.72;5092334;28;20200;-69
2023/07/13 04:18:48;;;;;;;12.35;10.38;;;;;;;21.95;68.96;99904.03;5080221;28;20219;-69
2023/07/13 04:21:17;;;;;;;12.25;9.82;;;;;;;22.19;68.29;99903.47;5089328;28;20216;-68
2023/07/13 04:23:45;;;;;;;12.77;10.07;;;;;;;22.50;67.62;99910.28;5087526;28;20243;-68
2023/07/13 04:26:13;;;;;;;10.55;9.18;;;;;;;22.82;66.68;99910.00;5087705;28;20263;-67
2023/07/13 04:28:43;;;;;;;11.43;9.90;;;;;;;23.11;65.63;99914.25;5091741;28;20254;-68
2023/07/13 04:31:11;;;;;;;11.07;8.98;;;;;;;23.27;64.55;99924.59;5092725;28;20725;-68
2023/07/13 04:33:39;;;;;;;11.48;10.25;;;;;;;23.32;63.98;99933.03;5091780;28;20287;-69
2023/07/13 04:36:09;;;;;;;13.15;10.40;;;;;;;23.30;64.25;99924.38;5092449;28;20288;-68
2023/07/13 04:38:38;;;;;;;12.45;10.93;;;;;;;23.27;64.35;99931.63;5091895;28;20204;-68
2023/07/13 04:41:09;;;;;;;11.77;9.80;;;;;;;23.20;65.03;99927.72;5089066;28;20212;-68
2023/07/13 04:43:37;;;;;;;13.68;10.02;;;;;;;23.13;65.07;99928.13;5088128;28;20612;-69
2023/07/13 04:46:08;;;;;;;21.35;10.45;;;;;;;23.10;65.38;99930.97;5091476;28;20254;-68
2023/07/13 04:48:36;;;;;;;14.52;9.68;;;;;;;23.04;65.67;99931.34;5090198;28;20200;-68
2023/07/13 04:51:05;;;;;;;18.58;11.15;;;;;;;22.98;65.92;99934.41;5082552;28;20546;-68
2023/07/13 04:53:34;;;;;;;12.18;9.77;;;;;;;22.90;66.32;99947.13;5085527;28;20228;-67
2023/07/13 04:56:03;;;;;;;11.20;9.45;;;;;;;22.85;66.68;99929.03;5084087;28;20240;-68
2023/07/13 04:58:31;;;;;;;11.00;9.50;;;;;;;22.84;66.77;99929.16;5085673;28;20243;-67
2023/07/13 05:01:04;;;;;;;16.42;10.57;;;;;;;22.86;67.01;99924.63;5092110;28;20615;-69
2023/07/13 05:03:34;;;;;;;20.88;13.48;;;;;;;22.86;67.05;99929.88;5086711;28;20197;-67
2023/07/13 05:06:04;;;;;;;28.40;20.50;;;;;;;22.86;67.25;99938.59;5089766;28;20250;-68
2023/07/13 05:08:32;;;;;;;15.13;11.95;;;;;;;22.87;67.51;99942.09;5091070;28;20243;-69
2023/07/13 05:11:01;;;;;;;14.43;10.57;;;;;;;22.92;67.38;99947.09;5091830;28;20204;-67
2023/07/13 05:13:30;;;;;;;14.43;10.13;;;;;;;22.95;67.22;99949.53;5087995;28;20601;-68
2023/07/13 05:15:59;;;;;;;18.15;11.57;;;;;;;22.98;66.96;99944.91;5086793;28;20267;-68
2023/07/13 05:18:28;;;;;;;15.30;11.35;;;;;;;22.99;66.82;99946.59;5086996;28;20292;-69
2023/07/13 05:21:03;;;;;;;15.65;11.80;;;;;;;22.96;66.76;99954.66;5091301;28;20208;-68
2023/07/13 05:23:32;;;;;;;16.65;11.35;;;;;;;22.87;67.00;99957.88;5084166;28;20192;-69
2023/07/13 05:26:00;;;;;;;17.45;11.63;;;;;;;22.94;67.32;99974.09;5083593;28;20576;-68
2023/07/13 05:28:29;;;;;;;16.23;10.70;;;;;;;23.07;67.29;99978.47;5082833;28;20201;-69
2023/07/13 05:30:58;;;;;;;16.75;11.10;;;;;;;23.15;66.43;99977.97;5071475;28;20207;-69
2023/07/13 05:33:27;;;;;;;13.20;10.60;;;;;;;23.23;66.75;99975.69;5075412;28;20292;-69
2023/07/13 05:35:55;;;;;;;13.32;10.68;;;;;;;23.29;65.82;99985.81;5082175;28;20210;-69
2023/07/13 05:38:24;;;;;;;11.82;10.60;;;;;;;23.52;65.85;99981.66;5083046;28;20569;-69
2023/07/13 05:40:55;;;;;;;16.75;10.85;;;;;;;23.95;65.15;99984.06;5082207;28;20244;-67
2023/07/13 05:43:23;;;;;;;13.05;10.85;;;;;;;24.50;62.75;99985.56;5088996;28;20207;-69
2023/07/13 05:45:53;;;;;;;12.23;10.68;;;;;;;24.76;61.44;99985.50;5087936;28;20579;-68
2023/07/13 05:48:21;;;;;;;12.52;10.70;;;;;;;25.02;60.71;99981.81;5090441;28;20204;-66
2023/07/13 05:50:50;;;;;;;13.73;11.13;;;;;;;25.19;59.90;99982.44;5088155;28;20254;-68
2023/07/13 05:53:18;;;;;;;14.32;10.68;;;;;;;25.29;59.42;99988.69;5087672;28;20204;-68
2023/07/13 05:55:49;;;;;;;14.32;10.90;;;;;;;25.37;59.00;99985.47;5081105;28;20636;-69
2023/07/13 05:58:18;;;;;;;11.38;10.05;;;;;;;25.28;59.07;99981.75;5089389;28;20209;-68
2023/07/13 06:00:47;;;;;;;25.88;11.57;;;;;;;25.21;59.05;99977.88;5086542;28;20219;-67
2023/07/13 06:03:16;;;;;;;10.98;9.88;;;;;;;25.04;59.20;99964.09;5083023;28;20609;-68
2023/07/13 06:05:44;;;;;;;13.27;10.40;;;;;;;24.79;59.41;99958.94;5085965;28;20204;-68
2023/07/13 06:08:12;;;;;;;15.70;9.80;;;;;;;24.52;60.05;99956.44;5091208;28;20336;-69
2023/07/13 06:10:40;;;;;;;15.80;9.15;;;;;;;24.38;59.80;99967.13;5087441;28;20200;-68
2023/07/13 06:13:09;;;;;;;12.68;8.70;;;;;;;24.41;59.80;99966.91;5090272;28;20208;-67
2023/07/13 06:15:37;;;;;;;13.77;8.55;;;;;;;24.66;58.82;99963.38;5090048;28;20200;-69
2023/07/13 06:18:05;;;;;;;8.40;7.53;;;;;;;24.69;56.72;99968.44;5091196;28;20647;-69
2023/07/13 06:20:35;;;;;;;9.70;7.57;;;;;;;24.69;55.73;99976.34;5087198;28;20244;-69
2023/07/13 06:23:03;;;;;;;9.50;7.13;;;;;;;25.14;55.93;99964.28;5086023;28;20246;-69
2023/07/13 06:25:31;;;;;;;8.27;6.80;;;;;;;26.29;52.97;99958.25;5080741;28;20565;-69
2023/07/13 06:28:00;;;;;;;9.10;5.57;;;;;;;27.57;48.59;99956.72;5081603;28;20785;-67
2023/07/13 06:30:29;;;;;;;7.63;6.82;;;;;;;29.68;43.71;99954.03;5088312;28;20201;-68
2023/07/13 06:32:57;;;;;;;8.00;6.30;;;;;;;31.56;39.09;99940.28;5080044;28;20205;-68
2023/07/13 06:35:25;;;;;;;8.57;6.07;;;;;;;33.40;35.59;99942.31;5079923;28;20205;-66
2023/07/13 06:37:53;;;;;;;16.40;7.00;;;;;;;35.17;32.21;99944.72;5089117;28;20212;-68
2023/07/13 06:40:21;;;;;;;7.03;5.85;;;;;;;36.46;28.50;99941.69;5089535;28;20246;-66
2023/07/13 06:42:49;;;;;;;10.13;6.18;;;;;;;37.37;27.47;99941.19;5089984;28;20209;-68
2023/07/13 06:45:18;;;;;;;8.77;5.93;;;;;;;38.08;25.93;99935.75;5079039;28;20614;-67
2023/07/13 06:47:47;;;;;;;8.63;5.88;;;;;;;38.86;25.16;99934.41;5087972;28;20205;-68
2023/07/13 06:50:15;;;;;;;7.15;4.97;;;;;;;39.87;23.71;99937.94;5085355;28;20622;-69
2023/07/13 06:52:43;;;;;;;6.47;4.68;;;;;;;40.34;21.84;99931.34;5090301;28;20238;-68
2023/07/13 06:55:11;;;;;;;4.50;4.10;;;;;;;40.22;20.97;99944.69;5090849;28;20261;-70
2023/07/13 06:57:39;;;;;;;4.28;3.88;;;;;;;40.35;21.45;99942.97;5090536;28;20736;-68
2023/07/13 07:00:09;;;;;;;6.30;4.97;;;;;;;40.94;21.09;99933.72;5088829;28;20243;-67
2023/07/13 07:02:37;;;;;;;10.98;5.15;;;;;;;41.97;20.03;99931.38;5084870;28;20266;-68
2023/07/13 07:05:08;;;;;;;6.90;4.40;;;;;;;41.87;19.44;99927.53;5086324;28;20211;-69
2023/07/13 07:07:36;;;;;;;5.10;4.45;;;;;;;41.69;20.10;99929.16;5082259;28;20196;-68
2023/07/13 07:10:04;;;;;;;7.10;4.50;;;;;;;42.35;19.38;99922.19;5092264;28;20253;-68
2023/07/13 07:12:32;;;;;;;3.55;3.00;;;;;;;42.71;17.30;99925.88;5088335;28;20565;-67
2023/07/13 07:15:00;;;;;;;2.70;2.50;;;;;;;43.35;16.07;99931.56;5093870;28;20192;-67
2023/07/13 07:17:28;;;;;;;2.30;2.10;;;;;;;43.20;14.57;99932.03;5093269;28;20235;-68
2023/07/13 07:19:56;;;;;;;3.50;2.13;;;;;;;42.63;14.95;99934.31;5093612;28;20616;-68
2023/07/13 07:22:27;;;;;;;2.45;2.20;;;;;;;42.28;15.76;99937.72;5093137;28;20287;-67
2023/07/13 07:24:55;;;;;;;3.50;2.50;;;;;;;42.06;16.48;99940.03;5088436;28;20247;-68
2023/07/13 07:27:23;;;;;;;2.75;2.55;;;;;;;42.29;16.34;99939.34;5089153;28;20235;-68
2023/07/13 07:29:54;;;;;;;4.80;2.78;;;;;;;42.94;15.53;99941.38;5093539;28;20655;-66
2023/07/13 07:32:43;;;;;;;3.08;2.38;;;;;;;43.61;15.23;99943.84;5084063;28;20204;-67
2023/07/13 07:35:13;;;;;;;5.15;3.28;;;;;;;43.20;14.96;99932.03;5087980;28;20196;-65
2023/07/13 07:37:43;;;;;;;6.88;3.20;;;;;;;42.55;16.12;99938.16;5093194;28;20235;-67
2023/07/13 07:40:14;;;;;;;32.55;6.22;;;;;;;42.27;17.14;99941.44;5092251;28;20651;-68
2023/07/13 07:42:44;;;;;;;5.30;3.38;;;;;;;42.41;17.13;99942.09;5093372;28;20224;-68
2023/07/13 07:45:13;;;;;;;5.13;3.15;;;;;;;43.02;16.76;99937.50;5093146;28;20542;-68
2023/07/13 07:47:41;;;;;;;10.13;3.38;;;;;;;43.25;16.48;99936.72;5092714;28;20249;-68
2023/07/13 07:50:10;;;;;;;5.68;2.75;;;;;;;43.31;16.07;99936.63;5089550;28;20232;-67
2023/07/13 07:52:38;;;;;;;5.38;2.83;;;;;;;42.70;15.87;99941.31;5092610;28;20576;-68
2023/07/13 07:55:08;;;;;;;4.05;2.65;;;;;;;41.64;16.33;99939.00;5090250;28;20204;-68
2023/07/13 07:57:39;;;;;;;4.15;3.20;;;;;;;39.91;18.32;99936.47;5087612;28;20675;-69
2023/07/13 08:00:12;;;;;;;8.73;2.80;;;;;;;38.85;20.00;99954.28;5090965;28;20587;-68
2023/07/13 08:02:45;;;;;;;3.95;2.88;;;;;;;37.86;20.84;99948.41;5088156;28;20216;-68
2023/07/13 08:05:16;;;;;;;4.78;3.05;;;;;;;36.44;22.32;99942.91;5079448;28;20220;-68
2023/07/13 08:07:47;;;;;;;5.75;3.15;;;;;;;34.90;24.61;99954.88;5089396;28;20613;-68
2023/07/13 08:10:16;;;;;;;6.28;3.30;;;;;;;33.58;26.57;99950.16;5086091;28;20303;-67
2023/07/13 08:12:44;;;;;;;19.52;4.53;;;;;;;32.63;28.41;99947.03;5091523;28;20207;-67
2023/07/13 08:15:32;;;;;;;3.13;2.83;;;;;;;32.06;29.37;99960.94;5084709;28;20228;-66
2023/07/13 08:18:00;;;;;;;3.25;2.60;;;;;;;31.71;29.29;99956.53;5087951;28;20208;-68
2023/07/13 08:20:28;;;;;;;3.80;2.70;;;;;;;31.47;29.79;99955.34;5085355;28;20201;-67
2023/07/13 08:22:56;;;;;;;2.95;2.67;;;;;;;31.14;30.02;99964.03;5087412;28;20205;-67
2023/07/13 08:25:26;;;;;;;4.30;3.10;;;;;;;30.84;30.14;99959.91;5077093;28;20589;-68
2023/07/13 08:27:54;;;;;;;4.43;2.80;;;;;;;30.52;31.05;99958.50;5087472;28;20228;-68
2023/07/13 08:30:22;;;;;;;5.50;3.20;;;;;;;30.28;31.22;99961.72;5073049;28;20208;-69
2023/07/13 08:32:50;;;;;;;5.43;3.20;;;;;;;30.28;31.69;99962.56;5082813;28;20558;-69
2023/07/13 08:35:18;;;;;;;3.95;3.05;;;;;;;30.44;32.31;99961.06;5075048;28;20204;-68
2023/07/13 08:37:48;;;;;;;4.15;3.30;;;;;;;30.48;32.51;99959.78;5085477;28;20243;-65
2023/07/13 08:40:16;;;;;;;7.40;3.55;;;;;;;30.27;32.54;99960.06;5083001;28;20218;-70
2023/07/13 08:42:55;;;;;;;4.13;3.55;;;;;;;30.14;33.04;99964.81;5082088;28;20882;-70
2023/07/13 08:45:26;;;;;;;3.65;3.35;;;;;;;30.05;33.54;99966.53;5086472;28;20235;-71
2023/07/13 08:47:58;;;;;;;3.95;3.55;;;;;;;30.09;33.33;99967.91;5079542;28;21899;-72
2023/07/13 08:50:34;;;;;;;6.53;4.38;;;;;;;30.27;33.72;99971.53;5082448;28;20605;-73
2023/07/13 08:53:24;;;;;;;4.15;3.75;;;;;;;30.42;33.65;99976.34;5080583;28;20203;-70
2023/07/13 08:55:59;;;;;;;8.18;4.25;;;;;;;30.48;33.54;99973.09;5091595;28;20246;-71
2023/07/13 08:58:30;;;;;;;5.65;3.92;;;;;;;30.66;33.75;99966.00;5088515;28;20240;-70
2023/07/13 09:01:06;;;;;;;4.50;4.10;;;;;;;30.91;33.00;99979.59;5084428;28;20232;-70
2023/07/13 09:03:41;;;;;;;6.03;4.38;;;;;;;31.08;32.82;99981.44;5082079;28;20613;-70
2023/07/13 09:06:16;;;;;;;4.25;3.80;;;;;;;31.24;32.93;99986.91;5087458;28;20483;-71
2023/07/13 09:08:58;;;;;;;5.78;4.25;;;;;;;31.25;32.90;99982.41;5087237;28;20215;-70
2023/07/13 09:11:42;;;;;;;4.45;4.07;;;;;;;31.35;32.96;99972.56;5092072;28;20323;-70
2023/07/13 09:14:40;;;;;;;4.07;3.65;;;;;;;31.40;33.01;99969.44;5092147;28;20219;-72
2023/07/13 09:17:16;;;;;;;4.45;4.05;;;;;;;31.25;32.74;99961.13;5084240;28;20345;-70
2023/07/13 09:19:47;;;;;;;4.40;4.00;;;;;;;30.91;33.12;99971.63;5088684;28;20211;-71
2023/07/13 09:22:20;;;;;;;4.45;4.05;;;;;;;30.66;33.64;99966.00;5086941;28;20213;-71
2023/07/13 09:24:56;;;;;;;7.65;4.00;;;;;;;30.54;33.96;99959.22;5073565;28;20729;-70
2023/07/13 09:27:31;;;;;;;4.00;3.65;;;;;;;30.32;34.57;99960.44;5079559;28;20236;-70
2023/07/13 09:30:16;;;;;;;4.63;3.67;;;;;;;30.06;34.93;99962.88;5082792;28;20214;-73
2023/07/13 09:32:51;;;;;;;4.60;3.92;;;;;;;29.78;35.75;99968.13;5088726;28;20193;-70
2023/07/13 09:35:23;;;;;;;5.65;4.38;;;;;;;29.63;35.71;99971.38;5074723;28;20254;-72
2023/07/13 09:37:51;;;;;;;7.38;3.63;;;;;;;29.13;36.56;99975.00;5071368;28;20215;-72
2023/07/13 09:40:26;;;;;;;9.88;3.60;;;;;;;28.39;38.18;99985.97;5078485;28;20207;-70
2023/07/13 09:42:55;;;;;;;8.60;3.80;;;;;;;27.74;39.34;99979.97;5086854;28;20628;-70
2023/07/13 09:45:30;;;;;;;8.85;3.60;;;;;;;27.24;40.74;99998.25;5085026;28;20201;-73
2023/07/13 09:48:06;;;;;;;4.00;2.95;;;;;;;26.74;41.44;99984.66;5083932;28;20655;-71
2023/07/13 09:50:35;;;;;;;8.18;3.47;;;;;;;26.44;41.92;99970.25;5084411;28;20208;-71
2023/07/13 09:53:03;;;;;;;5.10;3.10;;;;;;;26.18;42.65;99958.22;5071255;28;20209;-69
2023/07/13 09:55:34;;;;;;;7.25;3.28;;;;;;;26.10;42.83;99957.97;5071713;28;20209;-69
2023/07/13 09:58:07;;;;;;;4.60;3.10;;;;;;;26.53;42.40;99949.34;5082006;28;20286;-69
2023/07/13 10:00:37;;;;;;;3.35;2.90;;;;;;;27.45;39.96;99955.94;5083241;28;20201;-69
2023/07/13 10:03:14;;;;;;;3.30;3.00;;;;;;;28.03;38.51;99950.22;5079595;28;20722;-69
2023/07/13 10:05:45;;;;;;;4.40;2.75;;;;;;;28.22;37.81;99945.00;5077924;28;20233;-70
2023/07/13 10:08:19;;;;;;;3.03;2.72;;;;;;;28.24;37.70;99943.03;5079397;28;20197;-68
2023/07/13 10:10:52;;;;;;;4.28;2.75;;;;;;;28.04;37.65;99931.53;5080501;28;20204;-69
2023/07/13 10:13:37;;;;;;;3.17;2.88;;;;;;;27.80;38.44;99933.63;5085900;28;20205;-70
2023/07/13 10:16:08;;;;;;;3.08;2.78;;;;;;;27.52;38.96;99932.47;5084722;28;20546;-70
2023/07/13 10:18:43;;;;;;;5.25;2.80;;;;;;;27.18;39.52;99930.00;5070787;28;20205;-69
2023/07/13 10:21:18;;;;;;;3.42;3.13;;;;;;;26.70;40.91;99936.47;5078416;28;20228;-68
2023/07/13 10:23:52;;;;;;;3.35;3.05;;;;;;;26.25;41.55;99938.28;5088768;28;20232;-69
2023/07/13 10:26:25;;;;;;;6.15;3.38;;;;;;;25.84;42.94;99947.63;5073057;28;20264;-68
2023/07/13 10:28:57;;;;;;;3.65;3.20;;;;;;;25.47;43.97;99939.00;5083398;28;20213;-70
2023/07/13 10:31:26;;;;;;;3.22;2.92;;;;;;;25.19;44.63;99938.44;5073372;28;20198;-69
2023/07/13 10:33:55;;;;;;;4.65;3.20;;;;;;;24.97;45.67;99940.94;5079483;28;20578;-70
2023/07/13 10:36:31;;;;;;;5.05;2.90;;;;;;;24.87;46.89;99948.66;5072981;28;20207;-69
2023/07/13 10:39:03;;;;;;;4.68;3.10;;;;;;;24.81;47.29;99960.47;5081607;28;20228;-70
2023/07/13 10:41:36;;;;;;;4.95;3.13;;;;;;;24.81;48.79;99967.53;5070884;28;20224;-71
2023/07/13 10:44:12;;;;;;;6.55;3.92;;;;;;;24.79;50.60;99982.66;5085651;28;20258;-70
2023/07/13 10:46:42;;;;;;;6.53;4.43;;;;;;;24.65;53.40;100003.88;5077339;28;20599;-69
2023/07/13 10:49:12;;;;;;;12.18;5.30;;;;;;;24.31;55.75;100007.03;5076095;28;20617;-72
2023/07/13 10:51:41;;;;;;;6.25;3.80;;;;;;;23.99;57.27;99990.81;5081107;28;20208;-70
2023/07/13 10:54:17;;;;;;;5.57;3.67;;;;;;;23.64;59.34;99995.81;5093063;28;20220;-71
2023/07/13 10:56:50;;;;;;;5.68;3.65;;;;;;;23.37;60.66;99987.94;5092108;28;20196;-70
2023/07/13 10:59:25;;;;;;;4.82;3.83;;;;;;;23.15;61.73;99993.75;5085333;28;20224;-69
2023/07/13 11:02:09;;;;;;;8.68;4.10;;;;;;;22.85;62.62;100010.50;5088208;28;20215;-70
2023/07/13 11:04:42;;;;;;;7.57;3.70;;;;;;;22.52;64.49;100029.19;5074271;28;20216;-70
2023/07/13 11:07:21;;;;;;;8.02;5.07;;;;;;;22.30;65.72;100041.94;5081475;28;20335;-70
2023/07/13 11:09:54;;;;;;;8.32;4.75;;;;;;;22.17;66.40;100053.19;5090447;28;20239;-70
2023/07/13 11:12:44;;;;;;;7.88;5.10;;;;;;;22.12;66.47;100049.09;5075821;28;20584;-71
2023/07/13 11:15:13;;;;;;;12.60;6.00;;;;;;;22.14;66.10;100048.13;5087718;28;20208;-71
2023/07/13 11:17:51;;;;;;;14.50;6.93;;;;;;;22.14;65.54;100047.28;5089762;28;20636;-71
2023/07/13 11:20:32;;;;;;;11.10;5.95;;;;;;;22.03;66.11;100058.38;5088297;28;20214;-70
2023/07/13 11:23:19;;;;;;;10.93;5.97;;;;;;;21.98;66.56;100055.16;5089105;28;20237;-70
2023/07/13 11:25:48;;;;;;;13.88;5.70;;;;;;;22.05;67.37;100059.09;5089420;28;20210;-70
2023/07/13 11:28:22;;;;;;;9.98;5.97;;;;;;;22.10;67.16;100057.06;5074471;28;20594;-69
2023/07/13 11:31:00;;;;;;;12.80;6.35;;;;;;;22.13;67.62;100049.03;5073713;28;20470;-70
2023/07/13 11:33:51;;;;;;;10.38;5.30;;;;;;;22.22;67.11;100057.31;5084370;28;21201;-70
2023/07/13 11:36:22;;;;;;;15.07;5.63;;;;;;;22.30;66.77;100055.06;5075600;28;20545;-70
2023/07/13 11:38:59;;;;;;;9.05;5.05;;;;;;;22.36;66.23;100065.22;5081297;28;20204;-71
2023/07/13 11:41:31;;;;;;;9.20;5.50;;;;;;;22.41;65.93;100077.09;5077304;28;20202;-70
2023/07/13 11:44:08;;;;;;;9.75;5.20;;;;;;;22.35;65.49;100074.00;5073387;28;20216;-69